No particular awareness of the weather is required.    There are no Weather-warnings


Meteo18 Weather Cam more information Meteo18 Weather Cam


Thunder radar more information blitzortung!


Rain radar more information rain snow radar


Visit our other weather sites:

Template documentation
and downloads

And another site



Weather Underground History page Text

Daily Summary for November 22, 2017 Units:  Both    English   Metric
« Previous Day
Next Day »
Daily Weekly Monthly Yearly Custom
  High: Low: Average:
Temperature: 59.7 °F /  15.4 °C 34.9 °F /  1.6 °C 47.1 °F /  8.4 °C
Dew Point: 47.7 °F /  8.7 °C 34.5 °F /  1.4 °C 41.9 °F /  5.5 °C
Humidity: 100 % 62 % 83 %
Wind Speed: 4 mph /  6.4 km/h - 1.1 mph /  1.7 km/h
Wind Gust: 6 mph /  9.7 km/h - -
Wind:- - SSW
Pressure: 30 in /  1017.2 hPa 29.8 in /  1008.0 hPa -
Precipitation: 0 in /  0.0 mm    
Historical Graphs
 
 
Tabular Data for November 22, 2017
Time Temperature Dew Point Pressure Wind Wind Speed Wind Gust Humidity Rainfall Rate (Hourly)
00:02 39.2 °F /  4.0 °C 38.5 °F /  3.6 °C 30 in /  1017.2 hPa Calm   1 mph /  1.6 km/h 97 % 0 in /  0.0 mm
00:12 38.8 °F /  3.8 °C 38.1 °F /  3.4 °C 30 in /  1017.2 hPa Calm   1 mph /  1.6 km/h 97 % 0 in /  0.0 mm
00:22 38.5 °F /  3.6 °C 37.8 °F /  3.2 °C 30 in /  1017.2 hPa SSW 1 mph /  1.6 km/h 1 mph /  1.6 km/h 97 % 0 in /  0.0 mm
00:32 38.1 °F /  3.4 °C 37.4 °F /  3.0 °C 30 in /  1017.2 hPa Calm   2 mph /  3.2 km/h 97 % 0 in /  0.0 mm
00:57 38.5 °F /  3.6 °C 37.8 °F /  3.2 °C 30 in /  1017.2 hPa Calm   1 mph /  1.6 km/h 97 % 0 in /  0.0 mm
01:02 38.3 °F /  3.5 °C 37.6 °F /  3.1 °C 30 in /  1017.2 hPa Calm   1 mph /  1.6 km/h 97 % 0 in /  0.0 mm
01:12 38.1 °F /  3.4 °C 37.4 °F /  3.0 °C 30 in /  1016.8 hPa Calm   1 mph /  1.6 km/h 97 % 0 in /  0.0 mm
01:32 39.2 °F /  4.0 °C 38.5 °F /  3.6 °C 30 in /  1016.8 hPa Calm   2 mph /  3.2 km/h 97 % 0 in /  0.0 mm
01:42 39.2 °F /  4.0 °C 38.5 °F /  3.6 °C 30 in /  1016.8 hPa Calm   2 mph /  3.2 km/h 97 % 0 in /  0.0 mm
01:47 38.7 °F /  3.7 °C 37.9 °F /  3.3 °C 30 in /  1016.8 hPa Calm   2 mph /  3.2 km/h 97 % 0 in /  0.0 mm
02:12 36.7 °F /  2.6 °C 36 °F /  2.2 °C 30 in /  1016.5 hPa Calm   1 mph /  1.6 km/h 97 % 0 in /  0.0 mm
02:17 36.3 °F /  2.4 °C 35.6 °F /  2.0 °C 30 in /  1016.5 hPa Calm     97 % 0 in /  0.0 mm
02:32 36 °F /  2.2 °C 35.2 °F /  1.8 °C 30 in /  1016.5 hPa Calm     97 % 0 in /  0.0 mm
02:42 36 °F /  2.2 °C 35.2 °F /  1.8 °C 30 in /  1016.5 hPa Calm     97 % 0 in /  0.0 mm
02:47 36 °F /  2.2 °C 35.2 °F /  1.8 °C 30 in /  1016.5 hPa Calm     97 % 0 in /  0.0 mm
02:52 36 °F /  2.2 °C 35.2 °F /  1.8 °C 30 in /  1016.5 hPa Calm     97 % 0 in /  0.0 mm
02:57 35.8 °F /  2.1 °C 35.1 °F /  1.7 °C 30 in /  1016.5 hPa Calm     97 % 0 in /  0.0 mm
03:12 35.4 °F /  1.9 °C 34.7 °F /  1.5 °C 30 in /  1016.5 hPa Calm     97 % 0 in /  0.0 mm
03:22 34.9 °F /  1.6 °C 34.9 °F /  1.6 °C 30 in /  1016.1 hPa Calm     100 % 0 in /  0.0 mm
03:27 34.9 °F /  1.6 °C 34.9 °F /  1.6 °C 30 in /  1016.1 hPa Calm     100 % 0 in /  0.0 mm
08:47 35.1 °F /  1.7 °C 34.5 °F /  1.4 °C 30 in /  1014.4 hPa WNW 1 mph /  1.6 km/h -998.7 mph /  -1607.4 km/h 98 % 0 in /  0.0 mm
09:02 35.4 °F /  1.9 °C 34.9 °F /  1.6 °C 30 in /  1014.4 hPa Calm   2 mph /  3.2 km/h 98 % 0 in /  0.0 mm
09:12 35.4 °F /  1.9 °C 34.7 °F /  1.5 °C 30 in /  1014.4 hPa Calm   1 mph /  1.6 km/h 97 % 0 in /  0.0 mm
09:17 35.8 °F /  2.1 °C 35.1 °F /  1.7 °C 30 in /  1014.4 hPa Calm   1 mph /  1.6 km/h 97 % 0 in /  0.0 mm
09:27 36.7 °F /  2.6 °C 36 °F /  2.2 °C 30 in /  1014.4 hPa Calm     97 % 0 in /  0.0 mm
09:37 37.4 °F /  3.0 °C 36.9 °F /  2.7 °C 29.9 in /  1014.1 hPa Calm   1 mph /  1.6 km/h 98 % 0 in /  0.0 mm
09:47 37.8 °F /  3.2 °C 37 °F /  2.8 °C 29.9 in /  1014.1 hPa Calm   2 mph /  3.2 km/h 97 % 0 in /  0.0 mm
10:02 38.7 °F /  3.7 °C 37.9 °F /  3.3 °C 29.9 in /  1014.1 hPa SW 1 mph /  1.6 km/h 3 mph /  4.8 km/h 97 % 0 in /  0.0 mm
10:17 39.9 °F /  4.4 °C 39.2 °F /  4.0 °C 29.9 in /  1013.8 hPa Calm   2 mph /  3.2 km/h 97 % 0 in /  0.0 mm
10:22 41.5 °F /  5.3 °C 41 °F /  5.0 °C 29.9 in /  1013.8 hPa Calm   1 mph /  1.6 km/h 98 % 0 in /  0.0 mm
10:32 42.3 °F /  5.7 °C 41.7 °F /  5.4 °C 29.9 in /  1013.8 hPa Calm     98 % 0 in /  0.0 mm
10:37 41.5 °F /  5.3 °C 40.8 °F /  4.9 °C 29.9 in /  1013.8 hPa Calm     97 % 0 in /  0.0 mm
10:47 41.7 °F /  5.4 °C 41 °F /  5.0 °C 29.9 in /  1013.8 hPa Calm     97 % 0 in /  0.0 mm
10:57 42.4 °F /  5.8 °C 41.7 °F /  5.4 °C 29.9 in /  1013.8 hPa Calm     97 % 0 in /  0.0 mm
11:02 43 °F /  6.1 °C 42.3 °F /  5.7 °C 29.9 in /  1013.8 hPa SW 1 mph /  1.6 km/h   97 % 0 in /  0.0 mm
11:17 43.3 °F /  6.3 °C 42.1 °F /  5.6 °C 29.9 in /  1013.4 hPa SW 1 mph /  1.6 km/h 2 mph /  3.2 km/h 95 % 0 in /  0.0 mm
11:32 45.1 °F /  7.3 °C 43.5 °F /  6.4 °C 29.9 in /  1013.1 hPa Calm   2 mph /  3.2 km/h 94 % 0 in /  0.0 mm
11:37 45.5 °F /  7.5 °C 43.3 °F /  6.3 °C 29.9 in /  1013.1 hPa SW 1 mph /  1.6 km/h 2 mph /  3.2 km/h 92 % 0 in /  0.0 mm
11:42 45.9 °F /  7.7 °C 43.3 °F /  6.3 °C 29.9 in /  1013.1 hPa Calm   1 mph /  1.6 km/h 91 % 0 in /  0.0 mm
11:47 46.4 °F /  8.0 °C 43.3 °F /  6.3 °C 29.9 in /  1013.1 hPa Calm   2 mph /  3.2 km/h 89 % 0 in /  0.0 mm
11:52 46.9 °F /  8.3 °C 43.9 °F /  6.6 °C 29.9 in /  1012.8 hPa South 1 mph /  1.6 km/h 2 mph /  3.2 km/h 89 % 0 in /  0.0 mm
12:02 48.2 °F /  9.0 °C 44.6 °F /  7.0 °C 29.9 in /  1012.8 hPa Calm   2 mph /  3.2 km/h 87 % 0 in /  0.0 mm
12:12 49.3 °F /  9.6 °C 45 °F /  7.2 °C 29.9 in /  1012.8 hPa Calm   2 mph /  3.2 km/h 85 % 0 in /  0.0 mm
12:17 49.6 °F /  9.8 °C 44.4 °F /  6.9 °C 29.9 in /  1012.4 hPa SSE 1 mph /  1.6 km/h 2 mph /  3.2 km/h 82 % 0 in /  0.0 mm
12:27 50.5 °F /  10.3 °C 45 °F /  7.2 °C 29.9 in /  1012.1 hPa SSE 1 mph /  1.6 km/h 2 mph /  3.2 km/h 81 % 0 in /  0.0 mm
12:32 51.1 °F /  10.6 °C 44.8 °F /  7.1 °C 29.9 in /  1012.1 hPa Calm   2 mph /  3.2 km/h 79 % 0 in /  0.0 mm
12:42 51.8 °F /  11.0 °C 45.5 °F /  7.5 °C 29.9 in /  1012.1 hPa SE 1 mph /  1.6 km/h 3 mph /  4.8 km/h 79 % 0 in /  0.0 mm
12:47 52 °F /  11.1 °C 45.3 °F /  7.4 °C 29.9 in /  1012.1 hPa South 2 mph /  3.2 km/h 3 mph /  4.8 km/h 78 % 0 in /  0.0 mm
12:52 52.2 °F /  11.2 °C 45.1 °F /  7.3 °C 29.9 in /  1011.7 hPa Calm   2 mph /  3.2 km/h 77 % 0 in /  0.0 mm
13:02 53.1 °F /  11.7 °C 46 °F /  7.8 °C 29.9 in /  1011.7 hPa Calm   2 mph /  3.2 km/h 77 % 0 in /  0.0 mm
13:12 53.2 °F /  11.8 °C 46.2 °F /  7.9 °C 29.9 in /  1011.4 hPa Calm   2 mph /  3.2 km/h 77 % 0 in /  0.0 mm
13:17 53.8 °F /  12.1 °C 46.4 °F /  8.0 °C 29.9 in /  1011.4 hPa SW 1 mph /  1.6 km/h 3 mph /  4.8 km/h 76 % 0 in /  0.0 mm
13:22 54.1 °F /  12.3 °C 46 °F /  7.8 °C 29.9 in /  1011.4 hPa SW 1 mph /  1.6 km/h 3 mph /  4.8 km/h 74 % 0 in /  0.0 mm
13:37 55.6 °F /  13.1 °C 47.5 °F /  8.6 °C 29.9 in /  1011.1 hPa SSW 1 mph /  1.6 km/h 4 mph /  6.4 km/h 74 % 0 in /  0.0 mm
13:47 56.1 °F /  13.4 °C 47.3 °F /  8.5 °C 29.9 in /  1011.1 hPa SE 1 mph /  1.6 km/h 4 mph /  6.4 km/h 72 % 0 in /  0.0 mm
14:02 57.4 °F /  14.1 °C 46.9 °F /  8.3 °C 29.8 in /  1010.7 hPa South 2 mph /  3.2 km/h 5 mph /  8.0 km/h 68 % 0 in /  0.0 mm
14:42 59 °F /  15.0 °C 47.3 °F /  8.5 °C 29.8 in /  1010.4 hPa South 2 mph /  3.2 km/h 6 mph /  9.7 km/h 65 % 0 in /  0.0 mm
14:52 59.4 °F /  15.2 °C 47.1 °F /  8.4 °C 29.8 in /  1010.0 hPa SE 2 mph /  3.2 km/h 5 mph /  8.0 km/h 64 % 0 in /  0.0 mm
15:02 59.4 °F /  15.2 °C 46.8 °F /  8.2 °C 29.8 in /  1010.0 hPa SE 3 mph /  4.8 km/h 6 mph /  9.7 km/h 63 % 0 in /  0.0 mm
15:12 59.2 °F /  15.1 °C 46.6 °F /  8.1 °C 29.8 in /  1010.0 hPa ESE 2 mph /  3.2 km/h 4 mph /  6.4 km/h 63 % 0 in /  0.0 mm
15:17 59.5 °F /  15.3 °C 46.6 °F /  8.1 °C 29.8 in /  1010.0 hPa SSW 2 mph /  3.2 km/h 4 mph /  6.4 km/h 62 % 0 in /  0.0 mm
15:32 59.7 °F /  15.4 °C 47.1 °F /  8.4 °C 29.8 in /  1009.7 hPa SE 1 mph /  1.6 km/h 4 mph /  6.4 km/h 63 % 0 in /  0.0 mm
15:37 59.7 °F /  15.4 °C 47.5 °F /  8.6 °C 29.8 in /  1009.7 hPa SE 1 mph /  1.6 km/h 4 mph /  6.4 km/h 64 % 0 in /  0.0 mm
15:52 59.2 °F /  15.1 °C 46.2 °F /  7.9 °C 29.8 in /  1009.4 hPa ESE 3 mph /  4.8 km/h 3 mph /  4.8 km/h 62 % 0 in /  0.0 mm
15:57 59 °F /  15.0 °C 47.3 °F /  8.5 °C 29.8 in /  1009.4 hPa SE 1 mph /  1.6 km/h 4 mph /  6.4 km/h 65 % 0 in /  0.0 mm
16:02 58.8 °F /  14.9 °C 46.2 °F /  7.9 °C 29.8 in /  1009.4 hPa Calm   4 mph /  6.4 km/h 63 % 0 in /  0.0 mm
16:12 59 °F /  15.0 °C 46.8 °F /  8.2 °C 29.8 in /  1009.4 hPa SSE 1 mph /  1.6 km/h 3 mph /  4.8 km/h 64 % 0 in /  0.0 mm
16:17 59.4 °F /  15.2 °C 47.7 °F /  8.7 °C 29.8 in /  1009.4 hPa SSW 1 mph /  1.6 km/h 2 mph /  3.2 km/h 65 % 0 in /  0.0 mm
16:22 58.8 °F /  14.9 °C 47.1 °F /  8.4 °C 29.8 in /  1009.4 hPa SW 2 mph /  3.2 km/h 3 mph /  4.8 km/h 65 % 0 in /  0.0 mm
16:42 57.4 °F /  14.1 °C 46.6 °F /  8.1 °C 29.8 in /  1009.4 hPa SSW 1 mph /  1.6 km/h 4 mph /  6.4 km/h 67 % 0 in /  0.0 mm
16:52 56.5 °F /  13.6 °C 46.4 °F /  8.0 °C 29.8 in /  1009.4 hPa SW 2 mph /  3.2 km/h 4 mph /  6.4 km/h 69 % 0 in /  0.0 mm
16:57 55.9 °F /  13.3 °C 46.2 °F /  7.9 °C 29.8 in /  1009.4 hPa SW 4 mph /  6.4 km/h 5 mph /  8.0 km/h 70 % 0 in /  0.0 mm
17:02 55.4 °F /  13.0 °C 46.2 °F /  7.9 °C 29.8 in /  1009.4 hPa SSW 2 mph /  3.2 km/h 5 mph /  8.0 km/h 71 % 0 in /  0.0 mm
17:12 54.7 °F /  12.6 °C 46.2 °F /  7.9 °C 29.8 in /  1009.0 hPa SSW 2 mph /  3.2 km/h 5 mph /  8.0 km/h 73 % 0 in /  0.0 mm
17:17 54.1 °F /  12.3 °C 46 °F /  7.8 °C 29.8 in /  1009.0 hPa South 1 mph /  1.6 km/h 5 mph /  8.0 km/h 74 % 0 in /  0.0 mm
17:22 53.8 °F /  12.1 °C 46 °F /  7.8 °C 29.8 in /  1009.0 hPa SW 1 mph /  1.6 km/h 4 mph /  6.4 km/h 75 % 0 in /  0.0 mm
17:32 53.4 °F /  11.9 °C 46 °F /  7.8 °C 29.8 in /  1009.0 hPa Calm   3 mph /  4.8 km/h 76 % 0 in /  0.0 mm
17:37 53.2 °F /  11.8 °C 45.5 °F /  7.5 °C 29.8 in /  1009.0 hPa Calm   2 mph /  3.2 km/h 75 % 0 in /  0.0 mm
17:42 52.9 °F /  11.6 °C 45.5 °F /  7.5 °C 29.8 in /  1009.0 hPa SW 1 mph /  1.6 km/h 2 mph /  3.2 km/h 76 % 0 in /  0.0 mm
17:47 52.5 °F /  11.4 °C 45.1 °F /  7.3 °C 29.8 in /  1009.0 hPa SSW 2 mph /  3.2 km/h 2 mph /  3.2 km/h 76 % 0 in /  0.0 mm
17:52 52.5 °F /  11.4 °C 44.8 °F /  7.1 °C 29.8 in /  1009.0 hPa Calm   3 mph /  4.8 km/h 75 % 0 in /  0.0 mm
18:02 52.2 °F /  11.2 °C 44.8 °F /  7.1 °C 29.8 in /  1009.0 hPa SSW 1 mph /  1.6 km/h 3 mph /  4.8 km/h 76 % 0 in /  0.0 mm
18:22 50.9 °F /  10.5 °C 44.2 °F /  6.8 °C 29.8 in /  1009.0 hPa SW 1 mph /  1.6 km/h 3 mph /  4.8 km/h 78 % 0 in /  0.0 mm
18:27 50.5 °F /  10.3 °C 43.9 °F /  6.6 °C 29.8 in /  1009.0 hPa SW 1 mph /  1.6 km/h 3 mph /  4.8 km/h 78 % 0 in /  0.0 mm
18:32 50.4 °F /  10.2 °C 43.7 °F /  6.5 °C 29.8 in /  1009.0 hPa WSW 1 mph /  1.6 km/h 3 mph /  4.8 km/h 78 % 0 in /  0.0 mm
18:37 50.4 °F /  10.2 °C 44.1 °F /  6.7 °C 29.8 in /  1009.0 hPa SSW 1 mph /  1.6 km/h 3 mph /  4.8 km/h 79 % 0 in /  0.0 mm
18:52 49.6 °F /  9.8 °C 43.7 °F /  6.5 °C 29.8 in /  1008.7 hPa SSW 1 mph /  1.6 km/h 3 mph /  4.8 km/h 80 % 0 in /  0.0 mm
19:02 49.6 °F /  9.8 °C 43.7 °F /  6.5 °C 29.8 in /  1008.7 hPa SSW 2 mph /  3.2 km/h 4 mph /  6.4 km/h 80 % 0 in /  0.0 mm
19:12 49.5 °F /  9.7 °C 43.2 °F /  6.2 °C 29.8 in /  1008.4 hPa SSW 4 mph /  6.4 km/h 5 mph /  8.0 km/h 79 % 0 in /  0.0 mm
19:22 48.6 °F /  9.2 °C 43 °F /  6.1 °C 29.8 in /  1008.7 hPa SSW 4 mph /  6.4 km/h 5 mph /  8.0 km/h 81 % 0 in /  0.0 mm
19:32 48.9 °F /  9.4 °C 43 °F /  6.1 °C 29.8 in /  1008.7 hPa SSW 4 mph /  6.4 km/h 5 mph /  8.0 km/h 80 % 0 in /  0.0 mm
19:37 49.1 °F /  9.5 °C 42.8 °F /  6.0 °C 29.8 in /  1008.7 hPa SSW 2 mph /  3.2 km/h 5 mph /  8.0 km/h 79 % 0 in /  0.0 mm
19:42 49.3 °F /  9.6 °C 43 °F /  6.1 °C 29.8 in /  1008.7 hPa SSW 3 mph /  4.8 km/h 6 mph /  9.7 km/h 79 % 0 in /  0.0 mm
19:47 49.3 °F /  9.6 °C 43 °F /  6.1 °C 29.8 in /  1008.7 hPa SSW 3 mph /  4.8 km/h 6 mph /  9.7 km/h 79 % 0 in /  0.0 mm
20:02 48.7 °F /  9.3 °C 42.4 °F /  5.8 °C 29.8 in /  1008.7 hPa SSW 2 mph /  3.2 km/h 4 mph /  6.4 km/h 79 % 0 in /  0.0 mm
20:17 48 °F /  8.9 °C 41.5 °F /  5.3 °C 29.8 in /  1008.4 hPa SSW 2 mph /  3.2 km/h 4 mph /  6.4 km/h 78 % 0 in /  0.0 mm
20:32 48.4 °F /  9.1 °C 41.5 °F /  5.3 °C 29.8 in /  1008.4 hPa SSW 1 mph /  1.6 km/h 4 mph /  6.4 km/h 77 % 0 in /  0.0 mm
20:42 48 °F /  8.9 °C 41.2 °F /  5.1 °C 29.8 in /  1008.4 hPa SW 2 mph /  3.2 km/h 4 mph /  6.4 km/h 77 % 0 in /  0.0 mm
20:47 47.7 °F /  8.7 °C 40.8 °F /  4.9 °C 29.8 in /  1008.4 hPa SSW 3 mph /  4.8 km/h 4 mph /  6.4 km/h 77 % 0 in /  0.0 mm
21:12 46 °F /  7.8 °C 39.6 °F /  4.2 °C 29.8 in /  1008.4 hPa South 3 mph /  4.8 km/h 6 mph /  9.7 km/h 78 % 0 in /  0.0 mm
21:17 45.1 °F /  7.3 °C 39 °F /  3.9 °C 29.8 in /  1008.4 hPa SSW 3 mph /  4.8 km/h 6 mph /  9.7 km/h 79 % 0 in /  0.0 mm
21:22 45.5 °F /  7.5 °C 39.7 °F /  4.3 °C 29.8 in /  1008.4 hPa SW 2 mph /  3.2 km/h 5 mph /  8.0 km/h 80 % 0 in /  0.0 mm
21:32 46.2 °F /  7.9 °C 39.4 °F /  4.1 °C 29.8 in /  1008.4 hPa South 2 mph /  3.2 km/h 6 mph /  9.7 km/h 77 % 0 in /  0.0 mm
21:42 46 °F /  7.8 °C 39.2 °F /  4.0 °C 29.8 in /  1008.4 hPa SW 2 mph /  3.2 km/h 5 mph /  8.0 km/h 77 % 0 in /  0.0 mm
21:47 46 °F /  7.8 °C 39.2 °F /  4.0 °C 29.8 in /  1008.4 hPa SSE 2 mph /  3.2 km/h 4 mph /  6.4 km/h 77 % 0 in /  0.0 mm
21:57 46.2 °F /  7.9 °C 39.4 °F /  4.1 °C 29.8 in /  1008.4 hPa SSE 3 mph /  4.8 km/h 4 mph /  6.4 km/h 77 % 0 in /  0.0 mm
22:02 46.2 °F /  7.9 °C 39.4 °F /  4.1 °C 29.8 in /  1008.4 hPa South 1 mph /  1.6 km/h 4 mph /  6.4 km/h 77 % 0 in /  0.0 mm
22:17 46.4 °F /  8.0 °C 39.9 °F /  4.4 °C 29.8 in /  1008.4 hPa Calm   4 mph /  6.4 km/h 78 % 0 in /  0.0 mm
22:22 46 °F /  7.8 °C 39.6 °F /  4.2 °C 29.8 in /  1008.4 hPa SSW 1 mph /  1.6 km/h 4 mph /  6.4 km/h 78 % 0 in /  0.0 mm
22:32 46 °F /  7.8 °C 39.9 °F /  4.4 °C 29.8 in /  1008.4 hPa SSW 1 mph /  1.6 km/h 2 mph /  3.2 km/h 79 % 0 in /  0.0 mm
22:42 46 °F /  7.8 °C 39.9 °F /  4.4 °C 29.8 in /  1008.0 hPa SW 2 mph /  3.2 km/h 2 mph /  3.2 km/h 79 % 0 in /  0.0 mm
22:47 45.9 °F /  7.7 °C 39.7 °F /  4.3 °C 29.8 in /  1008.0 hPa Calm   3 mph /  4.8 km/h 79 % 0 in /  0.0 mm
22:52 45.9 °F /  7.7 °C 40.1 °F /  4.5 °C 29.8 in /  1008.0 hPa SE 3 mph /  4.8 km/h 3 mph /  4.8 km/h 80 % 0 in /  0.0 mm
22:57 46 °F /  7.8 °C 40.3 °F /  4.6 °C 29.8 in /  1008.0 hPa SSE 1 mph /  1.6 km/h 3 mph /  4.8 km/h 80 % 0 in /  0.0 mm
23:02 45.9 °F /  7.7 °C 39.7 °F /  4.3 °C 29.8 in /  1008.0 hPa SSW 2 mph /  3.2 km/h 3 mph /  4.8 km/h 79 % 0 in /  0.0 mm
23:12 45.9 °F /  7.7 °C 40.3 °F /  4.6 °C 29.8 in /  1008.0 hPa SSE 1 mph /  1.6 km/h 3 mph /  4.8 km/h 81 % 0 in /  0.0 mm
23:17 46 °F /  7.8 °C 40.5 °F /  4.7 °C 29.8 in /  1008.0 hPa South 1 mph /  1.6 km/h 2 mph /  3.2 km/h 81 % 0 in /  0.0 mm
23:27 45.7 °F /  7.6 °C 40.1 °F /  4.5 °C 29.8 in /  1008.0 hPa South 1 mph /  1.6 km/h 2 mph /  3.2 km/h 81 % 0 in /  0.0 mm
23:32 45.9 °F /  7.7 °C 40.6 °F /  4.8 °C 29.8 in /  1008.0 hPa South 1 mph /  1.6 km/h 2 mph /  3.2 km/h 82 % 0 in /  0.0 mm
23:42 45.9 °F /  7.7 °C 40.6 °F /  4.8 °C 29.8 in /  1008.0 hPa South 1 mph /  1.6 km/h 2 mph /  3.2 km/h 82 % 0 in /  0.0 mm
23:47 45.9 °F /  7.7 °C 41 °F /  5.0 °C 29.8 in /  1008.0 hPa Calm   2 mph /  3.2 km/h 83 % 0 in /  0.0 mm
23:52 46 °F /  7.8 °C 40.8 °F /  4.9 °C 29.8 in /  1008.0 hPa South 1 mph /  1.6 km/h 2 mph /  3.2 km/h 82 % 0 in /  0.0 mm
Meteo18
Compliments of Weather Underground - 4 mb

Script developed by  Jim McMurry - jmcmurry@mwt.net Adapted for the template by  Wim van der Kuil - Leuven-Template.eu

You find our weather info also at:

European Weather Network

Weather Underground

Equipment we use:

Weather-station
Davis Vue

Weather-program
Meteohub

Weather-server
Raspberry PI 2 B+

Provider
1 and 1

Davis Vue

Meteohub

Raspberry PI 2 B+

1 and 1